UAAH/BXH METAR and TAF weather

Enter ICAO airport designator
Station Type Date Time Source
UAAH METAR 2019/08/19 11:30 UTC NOAA

UAAH 191130Z 22005MPS CAVOK 26/09 Q1019 NOSIG RMK QFE727/0969


Station Type Date Time Source
UAAH Decoded METAR 2019/08/19 11:30 UTC NOAA

Station name not available
Aug 19, 2019 - 07:30 AM EDT / 2019.08.19 1130 UTC
Wind: from the SW (220 degrees) at 11 MPH (10 KT):0
Visibility: greater than 7 mile(s):0
Temperature: 78 F (26 C)
Dew Point: 48 F (9 C)
Relative Humidity: 34%
Pressure (altimeter): 30.09 in. Hg (1019 hPa)
ob: UAAH 191130Z 22005MPS CAVOK 26/09 Q1019 NOSIG RMK QFE727/0969
cycle: 11

Station Type Date Time Source
UAAH TAF 2016/09/21 12:09 UTC NOAA

TAF
AMD TAF
AMD UAAH 211506Z 2112/2124 36006MPS CAVOK

Example: see airport list